UAE13U EDDF-OMDB
Flight info
| Callsign | UAE13U |
|---|---|
| Flight time | N/A |
| Altitude | 35000 |
| Route | CINDY8S/18 CINDY Z74 LAMPU DCT NOMBO Y161 MAH DCT LATLO DCT OBEDI DCT BABOL DCT NISVA DCT USALI DCT OTKOK DCT RODIP DCT BELGI DCT KETEK UT38 VESAR L620 BALMA UR655 CEDAR/N0489F370 UR655 LEBOR R655 KTN R785 RASLI P559 TRF R23 NEVOL N318 TAMRO T503 KSA M321 RESAL T533 RAPMA DCT KUVSO DCT KATIT DCT PEKEM M628 RIGIL G783 ELUDA/N0502F350 G783 ASPED Q308 KIPOK Q568 IMPED |
| Aircraft | B77W/H-SDE1E2E3FGHIJ2J3J4J5M1RWXY/LB1D1 |
Departure
| Time | 2026-05-05 17:48 |
|---|---|
| Airport | Frankfurt Main Airport (EDDF) |
Arrival
| Time | N/A |
|---|---|
| Airport | Dubai International Airport (OMDB) |
| Time | Latitude | Longitude | Altitude | Speed | Heading |
|---|---|---|---|---|---|
| 2026-05-05 16:36 | 50.05174 | 8.59185 | 364 ft | 0 kts | 340° |
| 2026-05-05 17:29 | 50.05160 | 8.59193 | 380 ft | 3 kts | 340° |
| 2026-05-05 17:30 | 50.05141 | 8.59204 | 385 ft | 3 kts | 340° |
| 2026-05-05 17:30 | 50.05122 | 8.59215 | 365 ft | 3 kts | 333° |
| 2026-05-05 17:30 | 50.05107 | 8.59232 | 365 ft | 3 kts | 302° |
| 2026-05-05 17:30 | 50.05098 | 8.59258 | 366 ft | 4 kts | 294° |
| 2026-05-05 17:31 | 50.05098 | 8.59259 | 366 ft | 4 kts | 294° |
| 2026-05-05 17:31 | 50.05102 | 8.59231 | 368 ft | 3 kts | 277° |
| 2026-05-05 17:31 | 50.05100 | 8.59201 | 367 ft | 3 kts | 257° |
| 2026-05-05 17:31 | 50.05095 | 8.59181 | 368 ft | 1 kts | 249° |
| 2026-05-05 17:35 | 50.05094 | 8.59177 | 364 ft | 2 kts | 249° |
| 2026-05-05 17:35 | 50.05066 | 8.59107 | 368 ft | 14 kts | 232° |
| 2026-05-05 17:35 | 50.05017 | 8.58950 | 371 ft | 16 kts | 250° |
| 2026-05-05 17:35 | 50.04977 | 8.58782 | 368 ft | 16 kts | 250° |
| 2026-05-05 17:36 | 50.04937 | 8.58615 | 368 ft | 16 kts | 250° |
| 2026-05-05 17:36 | 50.04897 | 8.58448 | 369 ft | 16 kts | 250° |
| 2026-05-05 17:36 | 50.04857 | 8.58281 | 367 ft | 16 kts | 249° |
| 2026-05-05 17:36 | 50.04817 | 8.58113 | 367 ft | 17 kts | 249° |
| 2026-05-05 17:37 | 50.04757 | 8.57958 | 365 ft | 17 kts | 220° |
| 2026-05-05 17:37 | 50.04703 | 8.57872 | 367 ft | 17 kts | 237° |
| 2026-05-05 17:37 | 50.04645 | 8.57643 | 370 ft | 17 kts | 249° |
| 2026-05-05 17:37 | 50.04605 | 8.57471 | 368 ft | 17 kts | 250° |
| 2026-05-05 17:38 | 50.04564 | 8.57299 | 366 ft | 17 kts | 249° |
| 2026-05-05 17:38 | 50.04521 | 8.57120 | 368 ft | 20 kts | 250° |
| 2026-05-05 17:38 | 50.04463 | 8.56877 | 368 ft | 27 kts | 250° |
| 2026-05-05 17:38 | 50.04392 | 8.56579 | 366 ft | 30 kts | 249° |
| 2026-05-05 17:39 | 50.04319 | 8.56276 | 364 ft | 30 kts | 249° |
| 2026-05-05 17:39 | 50.04248 | 8.55978 | 368 ft | 30 kts | 250° |
| 2026-05-05 17:39 | 50.04175 | 8.55672 | 366 ft | 30 kts | 250° |
| 2026-05-05 17:39 | 50.04105 | 8.55379 | 366 ft | 13 kts | 249° |
| 2026-05-05 17:40 | 50.04073 | 8.55246 | 364 ft | 13 kts | 250° |
| 2026-05-05 17:40 | 50.04021 | 8.55027 | 365 ft | 31 kts | 250° |
| 2026-05-05 17:40 | 50.03945 | 8.54711 | 361 ft | 32 kts | 250° |
| 2026-05-05 17:40 | 50.03870 | 8.54401 | 358 ft | 28 kts | 244° |
| 2026-05-05 17:41 | 50.03781 | 8.54146 | 355 ft | 19 kts | 250° |
| 2026-05-05 17:41 | 50.03736 | 8.53956 | 357 ft | 19 kts | 250° |
| 2026-05-05 17:41 | 50.03691 | 8.53766 | 358 ft | 19 kts | 250° |
| 2026-05-05 17:41 | 50.03643 | 8.53578 | 353 ft | 19 kts | 247° |
| 2026-05-05 17:42 | 50.03604 | 8.53418 | 353 ft | 15 kts | 249° |
| 2026-05-05 17:42 | 50.03569 | 8.53270 | 353 ft | 15 kts | 250° |
| 2026-05-05 17:42 | 50.03535 | 8.53128 | 353 ft | 10 kts | 250° |
| 2026-05-05 17:42 | 50.03530 | 8.53110 | 351 ft | 0 kts | 250° |
| 2026-05-05 17:43 | 50.03530 | 8.53109 | 354 ft | 0 kts | 250° |
| 2026-05-05 17:43 | 50.03527 | 8.53096 | 354 ft | 3 kts | 250° |
| 2026-05-05 17:43 | 50.03499 | 8.52977 | 350 ft | 14 kts | 250° |
| 2026-05-05 17:43 | 50.03488 | 8.52930 | 346 ft | 4 kts | 250° |
| 2026-05-05 17:44 | 50.03483 | 8.52913 | 347 ft | 0 kts | 245° |
| 2026-05-05 17:44 | 50.03482 | 8.52909 | 347 ft | 2 kts | 245° |
| 2026-05-05 17:44 | 50.03466 | 8.52853 | 350 ft | 10 kts | 245° |
| 2026-05-05 17:45 | 50.03442 | 8.52766 | 337 ft | 3 kts | 249° |
| 2026-05-05 17:45 | 50.03440 | 8.52758 | 337 ft | 0 kts | 249° |
| 2026-05-05 17:45 | 50.03439 | 8.52752 | 338 ft | 1 kts | 249° |
| 2026-05-05 17:46 | 50.03426 | 8.52699 | 336 ft | 10 kts | 249° |
| 2026-05-05 17:46 | 50.03401 | 8.52612 | 336 ft | 7 kts | 232° |
| 2026-05-05 17:46 | 50.03355 | 8.52595 | 337 ft | 0 kts | 179° |
| 2026-05-05 17:47 | 50.03274 | 8.52597 | 335 ft | 41 kts | 179° |
| 2026-05-05 17:47 | 50.02702 | 8.52602 | 336 ft | 120 kts | 179° |
| 2026-05-05 17:47 | 50.01639 | 8.52605 | 349 ft | 187 kts | 180° |
| 2026-05-05 17:48 | 50.00309 | 8.52587 | 1095 ft | 185 kts | 179° |
| 2026-05-05 17:48 | 49.99040 | 8.52606 | 1865 ft | 184 kts | 179° |
| 2026-05-05 17:48 | 49.97717 | 8.52649 | 2241 ft | 197 kts | 178° |
| 2026-05-05 17:48 | 49.96339 | 8.52775 | 2740 ft | 199 kts | 166° |
| 2026-05-05 17:49 | 49.95118 | 8.53932 | 2858 ft | 223 kts | 124° |
| 2026-05-05 17:49 | 49.94439 | 8.56086 | 3360 ft | 225 kts | 113° |
| 2026-05-05 17:49 | 49.93777 | 8.58366 | 3730 ft | 241 kts | 114° |
| 2026-05-05 17:49 | 49.93092 | 8.60863 | 4088 ft | 258 kts | 114° |
| 2026-05-05 17:50 | 49.92359 | 8.63453 | 4729 ft | 265 kts | 116° |
| 2026-05-05 17:50 | 49.91566 | 8.66064 | 5417 ft | 269 kts | 118° |
| 2026-05-05 17:50 | 49.90724 | 8.68676 | 6143 ft | 272 kts | 120° |
| 2026-05-05 17:50 | 49.89846 | 8.71294 | 6876 ft | 275 kts | 121° |
| 2026-05-05 17:51 | 49.88940 | 8.73919 | 7582 ft | 277 kts | 121° |
| 2026-05-05 17:51 | 49.88024 | 8.76527 | 8278 ft | 281 kts | 122° |
| 2026-05-05 17:51 | 49.87074 | 8.79202 | 8970 ft | 285 kts | 122° |
| 2026-05-05 17:51 | 49.86105 | 8.81905 | 9669 ft | 288 kts | 122° |
| 2026-05-05 17:52 | 49.85119 | 8.84644 | 10265 ft | 295 kts | 122° |
| 2026-05-05 17:52 | 49.84082 | 8.87506 | 10482 ft | 317 kts | 121° |
| 2026-05-05 17:52 | 49.82960 | 8.90598 | 10647 ft | 340 kts | 121° |
| 2026-05-05 17:52 | 49.81759 | 8.93905 | 10833 ft | 363 kts | 121° |
| 2026-05-05 17:53 | 49.80499 | 8.97374 | 11324 ft | 375 kts | 121° |
| 2026-05-05 17:53 | 49.79157 | 9.00891 | 11998 ft | 383 kts | 126° |
| 2026-05-05 17:53 | 49.77496 | 9.04141 | 12861 ft | 385 kts | 135° |
| 2026-05-05 17:53 | 49.75580 | 9.07048 | 13740 ft | 389 kts | 139° |
| 2026-05-05 17:54 | 49.73603 | 9.09960 | 14435 ft | 395 kts | 139° |
| 2026-05-05 17:54 | 49.71630 | 9.12873 | 15237 ft | 399 kts | 139° |
| 2026-05-05 17:54 | 49.69619 | 9.15853 | 16091 ft | 402 kts | 139° |
| 2026-05-05 17:54 | 49.67596 | 9.18858 | 16919 ft | 406 kts | 139° |
| 2026-05-05 17:55 | 49.65549 | 9.21895 | 17720 ft | 410 kts | 139° |
| 2026-05-05 17:55 | 49.63486 | 9.24960 | 18463 ft | 415 kts | 139° |
| 2026-05-05 17:55 | 49.61397 | 9.28063 | 19123 ft | 420 kts | 139° |
| 2026-05-05 17:55 | 49.59281 | 9.31203 | 19771 ft | 424 kts | 139° |
| 2026-05-05 17:56 | 49.57146 | 9.34372 | 20469 ft | 427 kts | 139° |
| 2026-05-05 17:56 | 49.54992 | 9.37567 | 21160 ft | 431 kts | 139° |
| 2026-05-05 17:56 | 49.52821 | 9.40782 | 21794 ft | 435 kts | 139° |
| 2026-05-05 17:56 | 49.50626 | 9.44029 | 22388 ft | 440 kts | 139° |
| 2026-05-05 17:57 | 49.48405 | 9.47308 | 23008 ft | 444 kts | 139° |
| 2026-05-05 17:57 | 49.46168 | 9.50605 | 23616 ft | 448 kts | 139° |
| 2026-05-05 17:57 | 49.43911 | 9.53928 | 24121 ft | 451 kts | 140° |
| 2026-05-05 17:57 | 49.42404 | 9.56144 | 24464 ft | 453 kts | 140° |
| 2026-05-05 17:58 | 49.40117 | 9.59503 | 24973 ft | 457 kts | 140° |
| 2026-05-05 17:58 | 49.37813 | 9.62883 | 25468 ft | 460 kts | 140° |
| 2026-05-05 17:58 | 49.35489 | 9.66290 | 25939 ft | 463 kts | 140° |